Terminal Aerodrome Forecast
Issued by NWS

Home | Current Version | Previous Version | Text Only | Print | Product List | Glossary On
Versions: 1 2 3 4 5 6 7 8 9 10 11 12 13 14 15 16 17 18 19 20
000
FTUS43 KJKL 201700 RRA
TAFSME
TAF
KSME 201741Z 2018/2118 24005KT P6SM VCSH FEW035 SCT080 OVC110
     FM210600 VRB03KT P6SM VCSH BKN035
     FM210800 00000KT 4SM BR OVC015
     FM211400 31006KT P6SM BKN050=

USA.gov is the U.S. government's official web portal to all federal, state and local government web resources and services.